Time;durP1;ratioP1;P1;durP2;ratioP2;P2;SDS_P1;SDS_P2;PMS_P1;PMS_P2;Temp;Humidity;BMP_temperature;BMP_pressure;BME280_temperature;BME280_humidity;BME280_pressure;Samples;Min_cycle;Max_cycle;Signal;HPM_P1;HPM_P2
2023/09/09 17:58:20;;;;;;;1.83;1.20;;;24.30;80.80;;;;;;5150438;27;20184;-76
2023/09/09 18:00:46;;;;;;;1.90;1.20;;;24.00;82.70;;;;;;5129802;28;20040;-76
2023/09/09 18:03:11;;;;;;;3.95;1.40;;;23.90;84.60;;;;;;5111565;28;20112;-77
2023/09/09 18:05:37;;;;;;;2.53;1.92;;;23.90;86.00;;;;;;5130648;28;20485;-77
2023/09/09 18:08:03;;;;;;;1.80;1.50;;;23.80;87.00;;;;;;5130120;28;20123;-75
2023/09/09 18:10:29;;;;;;;1.92;1.65;;;23.80;87.60;;;;;;5130203;28;20481;-76
2023/09/09 18:12:54;;;;;;;2.60;1.88;;;23.70;87.90;;;;;;5094709;28;20130;-76
2023/09/09 18:15:21;;;;;;;3.85;2.45;;;23.80;88.30;;;;;;5130055;28;20465;-78
2023/09/09 18:17:46;;;;;;;2.33;2.00;;;23.70;88.40;;;;;;5111482;28;20451;-78
2023/09/09 18:20:12;;;;;;;3.08;2.55;;;23.60;88.50;;;;;;5111631;28;20031;-78
2023/09/09 18:22:38;;;;;;;3.03;2.40;;;23.60;88.60;;;;;;5092479;28;20044;-78
2023/09/09 18:25:04;;;;;;;3.97;2.65;;;23.50;88.60;;;;;;5129572;28;20035;-78
2023/09/09 18:27:30;;;;;;;2.45;2.20;;;23.50;88.70;;;;;;5094447;28;20066;-79
2023/09/09 18:29:56;;;;;;;3.17;2.58;;;23.50;88.80;;;;;;5130043;28;20119;-78
2023/09/09 18:32:22;;;;;;;2.90;2.30;;;23.40;88.80;;;;;;5094433;28;20044;-78
2023/09/09 18:34:47;;;;;;;3.40;2.55;;;23.40;88.80;;;;;;5111186;28;20052;-78
2023/09/09 18:37:14;;;;;;;2.80;2.30;;;23.30;88.80;;;;;;5111018;28;20039;-78
2023/09/09 18:39:40;;;;;;;3.67;2.75;;;23.30;88.90;;;;;;5111523;28;20043;-78
2023/09/09 18:42:06;;;;;;;4.70;2.88;;;23.20;88.80;;;;;;5094115;28;20042;-78
2023/09/09 18:44:31;;;;;;;4.00;2.95;;;23.20;88.90;;;;;;5110626;28;20481;-78
2023/09/09 18:46:58;;;;;;;4.35;2.70;;;23.10;88.80;;;;;;5111091;28;20031;-75
2023/09/09 18:49:24;;;;;;;3.85;2.80;;;23.00;88.80;;;;;;5129098;28;20049;-78
2023/09/09 18:51:50;;;;;;;3.55;2.58;;;23.00;88.80;;;;;;5093888;28;20043;-78
2023/09/09 18:54:16;;;;;;;2.50;2.10;;;23.00;88.80;;;;;;5109687;28;20058;-79
2023/09/09 18:56:42;;;;;;;2.92;2.10;;;22.90;88.80;;;;;;5129069;28;20047;-78
2023/09/09 18:59:08;;;;;;;3.63;2.72;;;22.90;88.90;;;;;;5093356;28;20401;-77
2023/09/09 19:01:34;;;;;;;2.70;2.30;;;22.90;88.80;;;;;;5111090;28;20127;-77
2023/09/09 19:04:00;;;;;;;2.85;2.38;;;22.90;88.80;;;;;;5093716;28;20408;-77
2023/09/09 19:06:26;;;;;;;4.45;3.00;;;22.80;88.80;;;;;;5076708;28;20050;-77
2023/09/09 19:08:51;;;;;;;4.10;3.05;;;22.70;88.80;;;;;;5084695;28;20051;-77
2023/09/09 19:11:17;;;;;;;4.40;3.22;;;22.70;88.80;;;;;;5063372;28;20485;-78
2023/09/09 19:13:43;;;;;;;4.07;2.90;;;22.70;88.80;;;;;;5114745;28;20067;-78
2023/09/09 19:16:10;;;;;;;3.63;2.60;;;22.70;88.80;;;;;;5060082;28;20070;-77
2023/09/09 19:18:35;;;;;;;3.60;2.80;;;22.60;88.80;;;;;;5077093;28;20082;-77
2023/09/09 19:21:01;;;;;;;4.53;3.10;;;22.60;88.70;;;;;;5094166;28;20469;-77
2023/09/09 19:23:27;;;;;;;4.18;3.33;;;22.50;88.70;;;;;;5094757;28;20394;-77
2023/09/09 19:25:53;;;;;;;4.13;2.97;;;22.50;88.70;;;;;;5076812;28;20040;-77
2023/09/09 19:28:20;;;;;;;3.42;2.70;;;22.50;88.80;;;;;;5076584;28;20421;-77
2023/09/09 19:30:46;;;;;;;3.83;2.85;;;22.40;89.40;;;;;;5076335;28;20452;-79
2023/09/09 19:33:12;;;;;;;4.38;3.20;;;22.40;88.80;;;;;;5076810;28;20090;-78
2023/09/09 19:35:38;;;;;;;4.88;3.10;;;22.30;88.80;;;;;;5094773;28;20028;-77
2023/09/09 19:38:03;;;;;;;4.40;3.00;;;22.30;88.80;;;;;;5094282;28;20044;-77
2023/09/09 19:40:29;;;;;;;4.13;3.22;;;22.20;88.80;;;;;;5094215;28;20055;-77
2023/09/09 19:42:55;;;;;;;3.53;2.88;;;22.20;88.90;;;;;;5094370;28;20047;-77
2023/09/09 19:45:21;;;;;;;4.32;3.28;;;22.20;88.90;;;;;;5076159;28;20047;-77
2023/09/09 19:47:46;;;;;;;3.83;2.90;;;22.10;88.90;;;;;;5094092;28;20063;-77
2023/09/09 19:50:12;;;;;;;2.90;2.53;;;22.10;88.90;;;;;;5094354;28;20071;-78
2023/09/09 19:52:38;;;;;;;3.65;2.85;;;22.10;89.00;;;;;;5094297;28;20040;-77
2023/09/09 19:55:04;;;;;;;4.72;3.42;;;22.10;89.00;;;;;;5094098;28;20039;-78
2023/09/09 19:57:29;;;;;;;4.43;3.28;;;22.00;88.90;;;;;;5076405;28;20048;-77
2023/09/09 19:59:56;;;;;;;3.40;2.90;;;22.00;88.90;;;;;;5075732;28;20067;-77
2023/09/09 20:02:21;;;;;;;4.80;3.33;;;22.00;88.90;;;;;;5075754;28;20036;-77
2023/09/09 20:04:49;;;;;;;3.67;2.80;;;22.00;89.00;;;;;;5091870;28;20044;-77
2023/09/09 20:07:15;;;;;;;4.75;3.30;;;21.80;88.90;;;;;;5094042;28;20044;-78
2023/09/09 20:09:41;;;;;;;4.60;3.17;;;21.90;89.00;;;;;;5094226;28;20429;-77
2023/09/09 20:12:07;;;;;;;5.05;3.58;;;21.80;89.10;;;;;;5094135;28;20105;-77
2023/09/09 20:14:32;;;;;;;4.97;3.35;;;21.80;89.10;;;;;;5075612;28;20079;-78
2023/09/09 20:16:58;;;;;;;4.30;3.13;;;21.70;89.10;;;;;;5090550;28;20048;-78
2023/09/09 20:19:24;;;;;;;4.63;3.58;;;21.70;89.10;;;;;;5111365;28;20412;-77
2023/09/09 20:21:50;;;;;;;6.05;3.60;;;21.70;89.20;;;;;;5111486;28;20040;-78
2023/09/09 20:24:15;;;;;;;4.15;3.08;;;21.70;89.20;;;;;;5111698;28;20035;-78
2023/09/09 20:26:41;;;;;;;3.80;2.80;;;21.60;89.20;;;;;;5077319;28;20466;-78
2023/09/09 20:29:07;;;;;;;3.58;2.80;;;21.60;89.20;;;;;;5113983;28;20054;-77
2023/09/09 20:31:32;;;;;;;3.38;2.60;;;21.50;89.20;;;;;;5114308;28;20040;-77
2023/09/09 20:33:58;;;;;;;3.80;2.85;;;21.60;89.20;;;;;;5114431;28;20477;-78
2023/09/09 20:36:24;;;;;;;3.80;2.80;;;21.50;89.20;;;;;;5095602;28;20421;-77
2023/09/09 20:38:50;;;;;;;3.22;2.72;;;21.50;89.30;;;;;;5095542;28;20170;-78
2023/09/09 20:41:15;;;;;;;3.65;2.97;;;21.40;89.30;;;;;;5096157;28;20035;-78
2023/09/09 20:43:43;;;;;;;3.10;2.53;;;21.40;89.30;;;;;;5113886;28;20042;-78
2023/09/09 20:46:10;;;;;;;3.45;2.80;;;21.30;89.30;;;;;;5095812;28;20039;-78
2023/09/09 20:48:36;;;;;;;4.40;3.33;;;21.30;89.30;;;;;;5095342;28;20097;-78
2023/09/09 20:51:03;;;;;;;3.97;2.78;;;21.30;89.40;;;;;;5096301;28;20046;-77
2023/09/09 20:53:33;;;;;;;3.58;2.97;;;21.30;89.50;;;;;;5095735;28;20489;-77
2023/09/09 20:56:06;;;;;;;3.30;2.60;;;21.20;89.50;;;;;;5095192;28;20059;-78
2023/09/09 20:58:32;;;;;;;3.63;2.70;;;21.20;89.50;;;;;;5113442;28;20051;-77
2023/09/09 21:00:57;;;;;;;3.38;2.58;;;21.20;89.50;;;;;;5114030;28;20385;-78
2023/09/09 21:03:23;;;;;;;4.10;2.95;;;21.10;89.50;;;;;;5113316;28;20047;-78
2023/09/09 21:05:49;;;;;;;3.75;2.90;;;21.20;89.60;;;;;;5095297;28;20101;-77
2023/09/09 21:08:15;;;;;;;3.35;2.35;;;21.10;89.60;;;;;;5113505;28;20051;-78
2023/09/09 21:10:40;;;;;;;3.45;2.42;;;21.10;89.60;;;;;;5061589;28;20058;-77
2023/09/09 21:13:06;;;;;;;3.95;2.75;;;21.10;89.60;;;;;;5113911;28;20045;-78
2023/09/09 21:15:32;;;;;;;4.03;2.90;;;21.00;89.60;;;;;;5095137;28;20126;-77
2023/09/09 21:17:57;;;;;;;4.03;2.97;;;21.00;89.70;;;;;;5113739;28;20050;-77
2023/09/09 21:20:23;;;;;;;4.35;3.15;;;21.00;90.10;;;;;;5095462;28;20050;-77
2023/09/09 21:22:49;;;;;;;4.47;3.13;;;20.90;89.70;;;;;;5095043;28;20040;-77
2023/09/09 21:25:28;;;;;;;3.78;2.72;;;20.90;89.70;;;;;;5113464;28;20541;-78
2023/09/09 21:27:54;;;;;;;4.05;3.00;;;20.90;89.70;;;;;;5078180;28;20378;-77
2023/09/09 21:30:20;;;;;;;3.38;2.60;;;20.90;89.80;;;;;;5113122;28;20487;-77
2023/09/09 21:32:45;;;;;;;3.58;2.38;;;20.90;89.80;;;;;;5112839;28;20063;-78
2023/09/09 21:35:11;;;;;;;3.65;2.80;;;20.90;89.80;;;;;;5113111;28;20043;-77
2023/09/09 21:37:37;;;;;;;3.80;2.88;;;20.80;89.70;;;;;;5078052;28;20062;-77
2023/09/09 21:40:03;;;;;;;3.13;2.70;;;20.80;89.80;;;;;;5078035;28;20108;-77
2023/09/09 21:42:29;;;;;;;2.65;2.30;;;20.80;89.80;;;;;;5094648;28;20576;-77
2023/09/09 21:44:55;;;;;;;3.55;2.80;;;20.70;89.80;;;;;;5112616;28;20118;-78
2023/09/09 21:47:22;;;;;;;3.67;2.88;;;20.70;89.90;;;;;;5077979;28;20439;-77
2023/09/09 21:49:49;;;;;;;3.47;2.63;;;20.70;89.90;;;;;;5095157;28;20047;-78
2023/09/09 21:52:14;;;;;;;3.03;2.33;;;20.70;89.90;;;;;;5095174;28;20088;-77
2023/09/09 21:54:40;;;;;;;4.18;3.13;;;20.60;89.90;;;;;;5094400;28;20432;-78
2023/09/09 21:57:06;;;;;;;3.10;2.55;;;20.60;90.00;;;;;;5113030;28;20043;-78
2023/09/09 21:59:32;;;;;;;4.22;3.15;;;20.60;90.00;;;;;;5094391;28;20036;-78
2023/09/09 22:01:58;;;;;;;3.75;2.75;;;20.50;90.00;;;;;;5077591;28;20071;-77
2023/09/09 22:04:23;;;;;;;3.50;2.60;;;20.50;90.00;;;;;;5094388;28;20164;-78
2023/09/09 22:06:50;;;;;;;3.58;2.97;;;20.50;90.00;;;;;;5112935;28;20036;-78
2023/09/09 22:09:17;;;;;;;3.75;2.85;;;20.50;90.00;;;;;;5094411;28;20032;-77
2023/09/09 22:11:43;;;;;;;3.83;3.05;;;20.50;90.00;;;;;;5094425;28;20043;-77
2023/09/09 22:14:10;;;;;;;3.75;2.78;;;20.50;90.00;;;;;;5112522;28;20042;-78
2023/09/09 22:16:36;;;;;;;4.03;2.90;;;20.40;90.00;;;;;;5077342;28;20398;-77
2023/09/09 22:19:04;;;;;;;3.05;2.53;;;20.40;90.00;;;;;;5113108;28;20043;-77
2023/09/09 22:21:30;;;;;;;3.95;3.05;;;20.40;90.00;;;;;;5112611;28;20401;-78
2023/09/09 22:23:56;;;;;;;3.13;2.30;;;20.40;90.00;;;;;;5094967;28;20044;-78
2023/09/09 22:26:24;;;;;;;3.30;2.42;;;20.40;90.00;;;;;;5113056;28;20047;-78
2023/09/09 22:28:51;;;;;;;4.18;2.70;;;20.30;90.00;;;;;;5094019;28;20039;-78
2023/09/09 22:31:16;;;;;;;3.80;2.80;;;20.30;90.00;;;;;;5112700;28;20066;-78
2023/09/09 22:33:42;;;;;;;3.75;2.85;;;20.30;90.00;;;;;;5112589;28;20123;-78
2023/09/09 22:36:08;;;;;;;4.00;3.10;;;20.30;90.00;;;;;;5112465;28;20153;-78
2023/09/09 22:38:35;;;;;;;4.05;2.90;;;20.30;90.00;;;;;;5093949;28;20043;-78
2023/09/09 22:41:01;;;;;;;3.70;2.83;;;20.20;90.00;;;;;;5112040;28;20131;-78
2023/09/09 22:43:27;;;;;;;3.33;2.58;;;20.20;90.00;;;;;;5113077;28;20071;-78
2023/09/09 22:45:53;;;;;;;3.45;2.65;;;20.20;90.00;;;;;;5113436;28;20079;-78
2023/09/09 22:48:19;;;;;;;2.95;2.45;;;20.20;90.00;;;;;;5097507;28;20497;-77
2023/09/09 22:50:44;;;;;;;2.75;2.15;;;20.10;90.00;;;;;;5097293;28;20035;-78
2023/09/09 22:53:10;;;;;;;3.50;2.70;;;20.10;90.00;;;;;;5097556;28;20047;-77
2023/09/09 22:55:36;;;;;;;3.25;2.58;;;20.10;90.00;;;;;;5115395;28;20417;-77
2023/09/09 22:58:02;;;;;;;3.20;2.58;;;20.10;90.00;;;;;;5115594;28;20044;-77
2023/09/09 23:00:27;;;;;;;3.47;2.67;;;20.10;90.00;;;;;;5115803;28;20027;-78
2023/09/09 23:02:53;;;;;;;2.75;2.28;;;20.10;90.00;;;;;;5115667;28;20092;-77
2023/09/09 23:05:19;;;;;;;3.40;2.58;;;20.10;90.00;;;;;;5097716;28;20076;-77
2023/09/09 23:07:44;;;;;;;3.35;2.63;;;20.00;90.00;;;;;;5097148;28;20051;-77
2023/09/09 23:10:10;;;;;;;3.88;2.90;;;20.10;90.00;;;;;;5115610;28;20040;-77
2023/09/09 23:12:36;;;;;;;3.45;2.50;;;20.00;90.00;;;;;;5115050;28;20062;-78
2023/09/09 23:15:02;;;;;;;3.78;2.90;;;20.00;90.00;;;;;;5096898;28;20047;-78
2023/09/09 23:17:27;;;;;;;3.33;2.45;;;20.10;90.00;;;;;;5079950;28;20481;-78
2023/09/09 23:19:56;;;;;;;3.88;2.92;;;20.00;90.00;;;;;;5097123;28;20029;-78
2023/09/09 23:22:21;;;;;;;4.32;2.58;;;20.00;90.00;;;;;;5115467;28;20044;-77
2023/09/09 23:24:47;;;;;;;3.65;2.80;;;19.90;90.00;;;;;;5096794;28;20035;-77
2023/09/09 23:27:13;;;;;;;3.65;2.75;;;19.90;90.00;;;;;;5097115;28;20047;-78
2023/09/09 23:29:39;;;;;;;4.18;2.90;;;19.90;90.00;;;;;;5115176;28;20051;-77
2023/09/09 23:32:05;;;;;;;3.65;2.58;;;19.90;90.10;;;;;;5096662;28;20393;-77
2023/09/09 23:34:30;;;;;;;3.83;2.70;;;19.90;90.00;;;;;;5096664;28;20039;-77
2023/09/09 23:36:56;;;;;;;3.97;2.90;;;19.90;90.00;;;;;;5097101;28;20350;-77
2023/09/09 23:39:22;;;;;;;4.05;2.85;;;19.90;90.00;;;;;;5115475;28;20048;-77
2023/09/09 23:41:47;;;;;;;3.13;2.40;;;19.90;90.00;;;;;;5096627;28;20489;-77
2023/09/09 23:44:13;;;;;;;4.07;2.65;;;19.90;90.00;;;;;;5114826;28;20059;-77
2023/09/09 23:46:39;;;;;;;4.43;2.83;;;19.90;90.00;;;;;;5115246;28;20056;-77
2023/09/09 23:49:05;;;;;;;3.78;2.40;;;19.90;90.00;;;;;;5114490;28;20556;-78
2023/09/09 23:51:31;;;;;;;3.22;2.50;;;19.90;90.00;;;;;;5096406;28;20035;-77
2023/09/09 23:53:56;;;;;;;3.00;2.30;;;19.90;90.00;;;;;;5079198;28;20143;-78
2023/09/09 23:56:22;;;;;;;3.30;2.53;;;19.80;89.90;;;;;;5079274;28;20046;-78
2023/09/09 23:58:48;;;;;;;3.25;2.63;;;19.90;89.90;;;;;;5096702;28;20047;-78
